createdAt,value
2023-11-20T00:00:30.411Z,25.94
2023-11-20T00:01:30.405Z,26.16
2023-11-20T00:02:30.409Z,26.05
2023-11-20T00:03:30.495Z,26.32
2023-11-20T00:04:30.411Z,25.46
2023-11-20T00:05:30.311Z,25.83
2023-11-20T00:06:30.349Z,26.10
2023-11-20T00:07:30.278Z,26.26
2023-11-20T00:08:30.292Z,26.26
2023-11-20T00:09:30.274Z,26.21
2023-11-20T00:10:30.277Z,26.26
2023-11-20T00:11:30.265Z,25.94
2023-11-20T00:12:30.262Z,26.10
2023-11-20T00:13:30.201Z,26.05
2023-11-20T00:14:30.219Z,25.94
2023-11-20T00:15:30.213Z,26.00
2023-11-20T00:16:30.272Z,25.73
2023-11-20T00:17:30.180Z,26.05
2023-11-20T00:18:30.168Z,26.05
2023-11-20T00:19:30.125Z,25.62
2023-11-20T00:20:30.153Z,26.26
2023-11-20T00:21:30.211Z,25.83
2023-11-20T00:22:30.097Z,26.05
2023-11-20T00:23:30.077Z,26.05
2023-11-20T00:24:30.067Z,26.21
2023-11-20T00:25:30.091Z,26.10
2023-11-20T00:26:30.068Z,26.21
2023-11-20T00:27:30.080Z,26.43
2023-11-20T00:28:30.027Z,25.83
2023-11-20T00:29:30.008Z,26.10
2023-11-20T00:30:30.134Z,25.78
2023-11-20T00:31:30.022Z,25.89
2023-11-20T00:32:30.000Z,25.62
2023-11-20T00:33:30.050Z,26.21
2023-11-20T00:34:29.965Z,26.00
2023-11-20T00:35:29.946Z,26.00
2023-11-20T00:36:29.960Z,26.16
2023-11-20T00:37:29.904Z,26.16
2023-11-20T00:38:29.969Z,26.21
2023-11-20T00:39:29.905Z,26.16
2023-11-20T00:40:29.887Z,25.51
2023-11-20T00:41:29.837Z,26.05
2023-11-20T00:42:29.873Z,25.94
2023-11-20T00:43:35.848Z,26.26
2023-11-20T00:44:29.847Z,25.51
2023-11-20T00:45:29.851Z,26.26
2023-11-20T00:46:29.850Z,25.89
2023-11-20T00:47:29.817Z,26.21
2023-11-20T00:48:29.774Z,25.46
2023-11-20T00:49:29.769Z,26.21
2023-11-20T00:50:29.789Z,25.73
2023-11-20T00:51:29.849Z,25.73
2023-11-20T00:52:29.703Z,26.26
2023-11-20T00:53:29.683Z,25.94
2023-11-20T00:54:29.741Z,26.26
2023-11-20T00:55:29.684Z,26.32
2023-11-20T00:56:29.649Z,25.89
2023-11-20T00:57:29.684Z,25.35
2023-11-20T00:58:29.644Z,26.32
2023-11-20T00:59:29.635Z,26.26
2023-11-20T01:00:29.687Z,25.94
2023-11-20T01:01:29.671Z,26.10
2023-11-20T01:02:29.686Z,25.89
2023-11-20T01:03:29.676Z,25.94
2023-11-20T01:04:29.661Z,26.26
2023-11-20T01:05:29.565Z,26.10
2023-11-20T01:06:29.869Z,26.10
2023-11-20T01:07:29.503Z,26.32
2023-11-20T01:08:29.517Z,25.62
2023-11-20T01:09:29.626Z,26.26
2023-11-20T01:10:29.524Z,25.89
2023-11-20T01:11:29.467Z,25.78
2023-11-20T01:12:29.601Z,26.05
2023-11-20T01:13:29.437Z,25.83
2023-11-20T01:14:29.450Z,26.21
2023-11-20T01:15:29.497Z,26.26
2023-11-20T01:16:29.421Z,26.00
2023-11-20T01:17:29.498Z,25.30
2023-11-20T01:18:30.102Z,25.35
2023-11-20T01:19:29.363Z,25.89
2023-11-20T01:20:29.356Z,26.05
2023-11-20T01:21:29.375Z,25.89
2023-11-20T01:22:29.336Z,25.51
2023-11-20T01:23:29.301Z,26.16
2023-11-20T01:24:29.346Z,26.32
2023-11-20T01:25:29.269Z,26.26
2023-11-20T01:26:29.280Z,26.26
2023-11-20T01:27:29.264Z,26.21
2023-11-20T01:28:29.242Z,26.00
2023-11-20T01:29:29.234Z,25.62
2023-11-20T01:30:29.277Z,25.94
2023-11-20T01:31:29.211Z,26.21
2023-11-20T01:32:29.209Z,26.00
2023-11-20T01:33:29.186Z,25.41
2023-11-20T01:34:29.211Z,26.32
2023-11-20T01:35:29.192Z,26.00
2023-11-20T01:36:29.201Z,26.43
2023-11-20T01:37:29.235Z,25.67
2023-11-20T01:38:29.119Z,25.94
2023-11-20T01:39:29.166Z,26.16
2023-11-20T01:40:29.098Z,25.24
2023-11-20T01:41:29.071Z,26.00
2023-11-20T01:42:29.097Z,25.73
2023-11-20T01:43:29.080Z,26.10
2023-11-20T01:44:29.096Z,26.32
2023-11-20T01:45:29.222Z,25.83
2023-11-20T01:46:29.149Z,26.21
2023-11-20T01:47:29.001Z,25.41
2023-11-20T01:48:29.025Z,26.16
2023-11-20T01:49:28.979Z,25.57
2023-11-20T01:50:28.999Z,25.73
2023-11-20T01:51:29.124Z,26.26
2023-11-20T01:52:28.950Z,26.00
2023-11-20T01:53:28.991Z,25.89
2023-11-20T01:54:28.993Z,25.83
2023-11-20T01:55:28.916Z,26.16
2023-11-20T01:56:28.868Z,26.10
2023-11-20T01:57:28.887Z,25.35
2023-11-20T01:58:28.927Z,25.51
2023-11-20T01:59:28.838Z,25.41
2023-11-20T02:00:28.828Z,25.41
2023-11-20T02:01:28.839Z,26.16
2023-11-20T02:02:28.846Z,25.57
2023-11-20T02:03:28.979Z,25.62
2023-11-20T02:04:28.857Z,25.67
2023-11-20T02:05:28.769Z,25.94
2023-11-20T02:06:28.749Z,26.00
2023-11-20T02:07:28.774Z,25.94
2023-11-20T02:08:28.731Z,26.00
2023-11-20T02:09:28.714Z,26.00
2023-11-20T02:10:28.713Z,26.21
2023-11-20T02:11:28.688Z,25.89
2023-11-20T02:12:28.708Z,25.94
2023-11-20T02:13:28.662Z,25.78
2023-11-20T02:14:28.666Z,26.26
2023-11-20T02:15:28.676Z,25.57
2023-11-20T02:16:28.704Z,25.83
2023-11-20T02:17:29.020Z,26.10
2023-11-20T02:18:28.588Z,26.21
2023-11-20T02:19:28.755Z,25.89
2023-11-20T02:20:28.583Z,25.51
2023-11-20T02:21:28.554Z,26.10
2023-11-20T02:22:28.557Z,25.51
2023-11-20T02:23:28.527Z,26.10
2023-11-20T02:24:28.576Z,25.78
2023-11-20T02:25:28.504Z,25.57
2023-11-20T02:26:28.514Z,25.57
2023-11-20T02:27:28.495Z,25.30
2023-11-20T02:28:28.454Z,26.05
2023-11-20T02:29:28.439Z,25.19
2023-11-20T02:30:28.582Z,25.62
2023-11-20T02:31:28.503Z,25.24
2023-11-20T02:32:28.432Z,25.35
2023-11-20T02:33:28.396Z,25.03
2023-11-20T02:34:29.764Z,26.00
2023-11-20T02:35:28.381Z,26.21
2023-11-20T02:36:28.380Z,25.35
2023-11-20T02:37:28.471Z,25.67
2023-11-20T02:38:28.323Z,25.83
2023-11-20T02:39:28.316Z,26.05
2023-11-20T02:40:28.309Z,26.05
2023-11-20T02:41:28.324Z,25.73
2023-11-20T02:42:28.273Z,25.78
2023-11-20T02:43:28.458Z,26.00
2023-11-20T02:44:28.258Z,25.94
2023-11-20T02:45:28.256Z,25.24
2023-11-20T02:46:28.248Z,26.10
2023-11-20T02:47:28.214Z,25.57
2023-11-20T02:48:28.201Z,25.83
2023-11-20T02:49:28.202Z,25.35
2023-11-20T02:50:28.177Z,26.16
2023-11-20T02:51:28.282Z,25.62
2023-11-20T02:52:28.228Z,26.21
2023-11-20T02:53:28.136Z,25.24
2023-11-20T02:54:28.135Z,26.10
2023-11-20T02:55:28.145Z,25.46
2023-11-20T02:56:28.119Z,26.00
2023-11-20T02:57:28.092Z,26.00
2023-11-20T02:58:28.093Z,25.73
2023-11-20T02:59:28.196Z,25.51
2023-11-20T03:00:28.086Z,25.46
2023-11-20T03:01:28.075Z,25.89
2023-11-20T03:02:28.126Z,25.51
2023-11-20T03:03:28.069Z,25.46
2023-11-20T03:04:28.029Z,25.35
2023-11-20T03:05:28.010Z,25.94
2023-11-20T03:06:27.987Z,26.00
2023-11-20T03:07:28.040Z,26.05
2023-11-20T03:08:27.957Z,26.00
2023-11-20T03:09:27.961Z,26.26
2023-11-20T03:10:27.945Z,25.51
2023-11-20T03:11:27.921Z,25.73
2023-11-20T03:12:27.948Z,25.67
2023-11-20T03:13:27.903Z,25.35
2023-11-20T03:14:27.900Z,25.94
2023-11-20T03:15:27.924Z,25.51
2023-11-20T03:16:28.036Z,25.73
2023-11-20T03:17:28.062Z,25.41
2023-11-20T03:18:27.899Z,25.35
2023-11-20T03:19:27.865Z,25.57
2023-11-20T03:20:27.822Z,25.41
2023-11-20T03:21:27.845Z,25.24
2023-11-20T03:22:27.771Z,26.26
2023-11-20T03:23:27.870Z,26.00
2023-11-20T03:24:27.853Z,25.46
2023-11-20T03:25:27.901Z,25.35
2023-11-20T03:26:27.733Z,25.62
2023-11-20T03:27:28.171Z,26.05
2023-11-20T03:28:27.865Z,25.46
2023-11-20T03:29:27.708Z,25.35
2023-11-20T03:30:27.844Z,25.73
2023-11-20T03:31:27.737Z,25.35
2023-11-20T03:32:27.698Z,25.83
2023-11-20T03:33:27.724Z,25.41
2023-11-20T03:34:27.646Z,25.57
2023-11-20T03:35:27.600Z,25.24
2023-11-20T03:36:27.581Z,25.62
2023-11-20T03:37:27.588Z,25.46
2023-11-20T03:38:27.715Z,25.46
2023-11-20T03:39:27.584Z,25.67
2023-11-20T03:40:27.562Z,25.19
2023-11-20T03:41:27.527Z,25.57
2023-11-20T03:42:27.514Z,26.05
2023-11-20T03:43:27.567Z,25.46
2023-11-20T03:44:27.478Z,26.00
2023-11-20T03:45:27.466Z,25.62
2023-11-20T03:46:27.543Z,25.24
2023-11-20T03:47:27.494Z,26.43
2023-11-20T03:48:27.449Z,26.21
2023-11-20T03:49:27.439Z,25.19
2023-11-20T03:50:27.451Z,26.05
2023-11-20T03:51:27.421Z,25.62
2023-11-20T03:52:27.448Z,25.35
2023-11-20T03:53:27.505Z,25.46
2023-11-20T03:54:27.336Z,25.51
2023-11-20T03:55:27.344Z,25.24
2023-11-20T03:56:27.319Z,25.62
2023-11-20T03:57:27.368Z,25.67
2023-11-20T03:58:27.355Z,25.51
2023-11-20T03:59:27.373Z,25.57
2023-11-20T04:00:27.280Z,25.14
2023-11-20T04:01:27.354Z,25.73
2023-11-20T04:02:27.349Z,25.67
2023-11-20T04:03:27.240Z,25.46
2023-11-20T04:04:27.292Z,25.41
2023-11-20T04:05:27.232Z,25.67
2023-11-20T04:06:27.185Z,26.10
2023-11-20T04:07:27.208Z,25.51
2023-11-20T04:08:27.166Z,25.41
2023-11-20T04:09:27.160Z,25.73
2023-11-20T04:10:27.132Z,25.78
2023-11-20T04:11:27.166Z,25.30
2023-11-20T04:12:27.450Z,25.24
2023-11-20T04:13:27.108Z,25.78
2023-11-20T04:14:27.117Z,25.83
2023-11-20T04:15:27.073Z,25.78
2023-11-20T04:16:27.103Z,26.32
2023-11-20T04:18:27.068Z,25.67
2023-11-20T04:19:27.025Z,25.14
2023-11-20T04:20:27.032Z,25.24
2023-11-20T04:21:27.016Z,25.51
2023-11-20T04:22:26.992Z,25.30
2023-11-20T04:23:26.986Z,25.46
2023-11-20T04:24:26.960Z,25.57
2023-11-20T04:25:26.976Z,25.57
2023-11-20T04:26:26.974Z,25.46
2023-11-20T04:27:26.956Z,26.05
2023-11-20T04:28:26.942Z,26.37
2023-11-20T04:29:26.900Z,25.24
2023-11-20T04:30:26.981Z,25.62
2023-11-20T04:31:27.883Z,25.67
2023-11-20T04:32:26.865Z,25.35
2023-11-20T04:33:26.867Z,25.30
2023-11-20T04:34:26.859Z,25.46
2023-11-20T04:35:26.864Z,25.57
2023-11-20T04:36:26.879Z,25.57
2023-11-20T04:37:26.807Z,25.35
2023-11-20T04:38:26.775Z,25.24
2023-11-20T04:39:26.867Z,25.30
2023-11-20T04:40:26.764Z,25.73
2023-11-20T04:41:26.743Z,25.62
2023-11-20T04:42:26.776Z,25.51
2023-11-20T04:43:26.728Z,26.16
2023-11-20T04:44:26.725Z,25.46
2023-11-20T04:45:26.721Z,25.51
2023-11-20T04:46:26.674Z,25.41
2023-11-20T04:47:26.761Z,25.62
2023-11-20T04:48:26.672Z,25.62
2023-11-20T04:49:26.746Z,25.51
2023-11-20T04:50:26.623Z,25.57
2023-11-20T04:51:26.625Z,25.51
2023-11-20T04:52:26.651Z,25.73
2023-11-20T04:53:26.611Z,25.57
2023-11-20T04:54:26.606Z,25.41
2023-11-20T04:55:26.560Z,25.67
2023-11-20T04:56:26.541Z,25.57
2023-11-20T04:57:26.630Z,25.41
2023-11-20T04:58:26.683Z,25.89
2023-11-20T04:59:26.630Z,25.57
2023-11-20T05:00:26.594Z,25.46
2023-11-20T05:01:26.570Z,25.83
2023-11-20T05:02:26.551Z,25.30
2023-11-20T05:03:26.609Z,25.46
2023-11-20T05:04:26.558Z,25.24
2023-11-20T05:05:26.460Z,25.24
2023-11-20T05:06:26.535Z,25.83
2023-11-20T05:07:26.541Z,25.57
2023-11-20T05:08:26.540Z,25.46
2023-11-20T05:09:26.372Z,25.41
2023-11-20T05:10:26.374Z,25.41
2023-11-20T05:11:26.378Z,25.83
2023-11-20T05:12:28.771Z,25.62
2023-11-20T05:13:26.351Z,26.05
2023-11-20T05:14:26.310Z,25.46
2023-11-20T05:15:26.307Z,25.51
2023-11-20T05:16:26.333Z,25.57
2023-11-20T05:17:26.302Z,25.41
2023-11-20T05:18:26.293Z,25.83
2023-11-20T05:19:26.262Z,25.30
2023-11-20T05:20:26.257Z,25.62
2023-11-20T05:21:26.233Z,25.46
2023-11-20T05:22:26.246Z,25.41
2023-11-20T05:23:26.227Z,25.51
2023-11-20T05:24:26.202Z,25.35
2023-11-20T05:25:26.335Z,25.62
2023-11-20T05:26:26.164Z,25.57
2023-11-20T05:27:26.186Z,25.41
2023-11-20T05:28:26.131Z,25.46
2023-11-20T05:29:26.161Z,26.16
2023-11-20T05:30:26.110Z,25.35
2023-11-20T05:31:26.305Z,25.46
2023-11-20T05:32:26.121Z,25.67
2023-11-20T05:33:26.092Z,25.62
2023-11-20T05:34:26.084Z,25.46
2023-11-20T05:35:26.100Z,25.73
2023-11-20T05:36:26.053Z,25.30
2023-11-20T05:37:26.033Z,25.51
2023-11-20T05:38:26.053Z,25.30
2023-11-20T05:39:26.002Z,25.30
2023-11-20T05:40:26.051Z,25.46
2023-11-20T05:41:25.986Z,25.67
2023-11-20T05:42:25.989Z,25.41
2023-11-20T05:43:25.968Z,25.46
2023-11-20T05:44:25.940Z,25.41
2023-11-20T05:45:25.918Z,25.62
2023-11-20T05:46:26.127Z,25.51
2023-11-20T05:47:25.924Z,25.51
2023-11-20T05:48:25.897Z,25.51
2023-11-20T05:49:25.872Z,25.30
2023-11-20T05:50:25.883Z,25.24
2023-11-20T05:51:25.862Z,25.73
2023-11-20T05:52:25.846Z,25.35
2023-11-20T05:53:25.852Z,25.57
2023-11-20T05:54:25.813Z,26.10
2023-11-20T05:55:25.885Z,25.24
2023-11-20T05:56:25.790Z,25.57
2023-11-20T05:57:25.799Z,25.30
2023-11-20T05:58:25.748Z,25.62
2023-11-20T05:59:25.751Z,25.24
2023-11-20T06:00:25.821Z,25.24
2023-11-20T06:01:25.912Z,25.46
2023-11-20T06:02:25.810Z,25.62
2023-11-20T06:03:25.775Z,25.24
2023-11-20T06:04:25.792Z,25.51
2023-11-20T06:05:25.712Z,25.62
2023-11-20T06:06:25.652Z,25.35
2023-11-20T06:07:25.627Z,25.24
2023-11-20T06:08:25.625Z,25.67
2023-11-20T06:09:25.609Z,25.57
2023-11-20T06:10:25.620Z,25.51
2023-11-20T06:11:25.602Z,25.57
2023-11-20T06:12:25.584Z,25.14
2023-11-20T06:13:25.625Z,25.78
2023-11-20T06:14:25.603Z,25.73
2023-11-20T06:15:25.544Z,25.62
2023-11-20T06:16:25.534Z,25.35
2023-11-20T06:17:25.599Z,25.51
2023-11-20T06:18:25.493Z,25.24
2023-11-20T06:19:27.570Z,25.78
2023-11-20T06:20:25.546Z,25.51
2023-11-20T06:21:25.478Z,25.67
2023-11-20T06:22:25.455Z,25.57
2023-11-20T06:23:25.442Z,25.19
2023-11-20T06:24:25.484Z,26.00
2023-11-20T06:25:25.349Z,25.35
2023-11-20T06:26:25.342Z,25.46
2023-11-20T06:27:25.312Z,25.73
2023-11-20T06:28:25.373Z,25.24
2023-11-20T06:29:25.300Z,26.21
2023-11-20T06:30:25.276Z,25.41
2023-11-20T06:31:25.378Z,25.41
2023-11-20T06:32:25.286Z,25.35
2023-11-20T06:33:25.273Z,25.46
2023-11-20T06:34:25.287Z,25.24
2023-11-20T06:35:25.216Z,25.62
2023-11-20T06:36:25.211Z,25.41
2023-11-20T06:37:25.191Z,25.51
2023-11-20T06:38:25.212Z,25.46
2023-11-20T06:39:25.157Z,25.51
2023-11-20T06:40:25.208Z,25.24
2023-11-20T06:41:25.210Z,25.57
2023-11-20T06:42:25.123Z,26.05
2023-11-20T06:43:25.288Z,25.51
2023-11-20T06:44:25.113Z,25.46
2023-11-20T06:45:25.119Z,25.83
2023-11-20T06:46:25.086Z,25.51
2023-11-20T06:47:25.119Z,25.30
2023-11-20T06:48:25.078Z,25.14
2023-11-20T06:49:25.047Z,25.41
2023-11-20T06:50:25.043Z,25.73
2023-11-20T06:51:25.084Z,25.41
2023-11-20T06:52:25.046Z,25.57
2023-11-20T06:53:25.019Z,25.73
2023-11-20T06:54:25.032Z,25.35
2023-11-20T06:55:25.060Z,25.41
2023-11-20T06:56:24.975Z,25.35
2023-11-20T06:57:24.968Z,25.83
2023-11-20T06:58:24.960Z,25.24
2023-11-20T06:59:24.911Z,25.41
2023-11-20T07:00:24.954Z,25.67
2023-11-20T07:01:24.909Z,25.19
2023-11-20T07:02:25.026Z,25.46
2023-11-20T07:03:24.963Z,25.73
2023-11-20T07:04:24.912Z,25.89
2023-11-20T07:05:24.839Z,25.51
2023-11-20T07:06:24.886Z,25.46
2023-11-20T07:07:24.831Z,25.51
2023-11-20T07:08:24.829Z,25.57
2023-11-20T07:09:24.795Z,25.41
2023-11-20T07:10:24.861Z,25.67
2023-11-20T07:11:25.060Z,25.41
2023-11-20T07:12:24.882Z,25.57
2023-11-20T07:13:26.782Z,25.30
2023-11-20T07:14:24.738Z,25.62
2023-11-20T07:15:24.818Z,25.57
2023-11-20T07:16:24.763Z,25.67
2023-11-20T07:17:24.697Z,25.19
2023-11-20T07:18:24.694Z,25.46
2023-11-20T07:19:24.734Z,25.67
2023-11-20T07:20:24.674Z,25.30
2023-11-20T07:21:24.659Z,25.89
2023-11-20T07:22:24.657Z,25.30
2023-11-20T07:23:24.589Z,25.46
2023-11-20T07:24:24.634Z,25.51
2023-11-20T07:25:24.822Z,25.46
2023-11-20T07:26:24.570Z,25.30
2023-11-20T07:27:24.550Z,25.41
2023-11-20T07:28:30.092Z,25.51
2023-11-20T07:29:24.522Z,25.51
2023-11-20T07:30:28.258Z,25.51
2023-11-20T07:31:24.556Z,25.24
2023-11-20T07:33:35.656Z,25.46
2023-11-20T07:34:36.502Z,25.41
2023-11-20T07:35:37.111Z,25.78
2023-11-20T07:36:36.486Z,25.73
2023-11-20T07:37:36.443Z,25.57
2023-11-20T07:38:37.873Z,25.51
2023-11-20T07:39:36.453Z,26.10
2023-11-20T07:40:36.440Z,25.30
2023-11-20T07:41:36.388Z,25.51
2023-11-20T07:42:36.413Z,26.32
2023-11-20T07:43:36.512Z,25.73
2023-11-20T07:44:36.374Z,25.35
2023-11-20T07:45:36.381Z,25.46
2023-11-20T07:46:36.409Z,25.51
2023-11-20T07:47:36.388Z,25.30
2023-11-20T07:48:36.300Z,25.73
2023-11-20T07:49:36.316Z,25.51
2023-11-20T07:50:36.280Z,25.57
2023-11-20T07:51:36.278Z,25.62
2023-11-20T07:52:36.257Z,25.30
2023-11-20T07:53:36.262Z,25.62
2023-11-20T07:54:36.287Z,25.57
2023-11-20T07:55:36.214Z,25.24
2023-11-20T07:56:36.213Z,25.46
2023-11-20T07:57:36.193Z,25.67
2023-11-20T07:58:36.359Z,25.46
2023-11-20T07:59:36.173Z,25.46
2023-11-20T08:00:36.202Z,25.89
2023-11-20T08:01:36.131Z,25.41
2023-11-20T08:02:36.151Z,25.41
2023-11-20T08:03:36.483Z,25.57
2023-11-20T08:04:36.316Z,25.35
2023-11-20T08:05:44.373Z,25.41
2023-11-20T08:06:36.145Z,25.73
2023-11-20T08:07:36.054Z,26.10
2023-11-20T08:08:36.059Z,26.26
2023-11-20T08:09:36.048Z,25.41
2023-11-20T08:10:36.014Z,26.32
2023-11-20T08:11:36.008Z,25.67
2023-11-20T08:12:36.038Z,25.67
2023-11-20T08:13:36.012Z,26.21
2023-11-20T08:14:35.974Z,25.67
2023-11-20T08:15:35.974Z,26.05
2023-11-20T08:16:36.151Z,25.51
2023-11-20T08:17:36.000Z,26.37
2023-11-20T08:18:35.971Z,25.78
2023-11-20T08:19:35.919Z,25.46
2023-11-20T08:20:38.999Z,26.21
2023-11-20T08:21:38.283Z,25.67
2023-11-20T08:22:36.227Z,25.89
2023-11-20T08:23:35.864Z,26.05
2023-11-20T08:24:35.842Z,25.73
2023-11-20T08:25:35.835Z,25.46
2023-11-20T08:26:35.822Z,26.26
2023-11-20T08:27:35.832Z,26.26
2023-11-20T08:28:35.800Z,26.48
2023-11-20T08:29:38.674Z,26.00
2023-11-20T08:30:35.785Z,26.21
2023-11-20T08:31:35.869Z,25.94
2023-11-20T08:32:35.772Z,25.83
2023-11-20T08:33:35.794Z,26.05
2023-11-20T08:34:35.928Z,26.00
2023-11-20T08:35:35.707Z,26.26
2023-11-20T08:36:35.716Z,26.16
2023-11-20T08:37:35.695Z,26.10
2023-11-20T08:38:35.654Z,26.00
2023-11-20T08:39:35.652Z,26.10
2023-11-20T08:40:35.720Z,26.10
2023-11-20T08:41:35.648Z,26.26
2023-11-20T08:42:35.613Z,26.00
2023-11-20T08:43:35.617Z,26.10
2023-11-20T08:44:35.580Z,26.00
2023-11-20T08:45:35.568Z,25.94
2023-11-20T08:46:35.627Z,26.26
2023-11-20T08:47:35.601Z,26.21
2023-11-20T08:48:35.554Z,26.10
2023-11-20T08:49:35.527Z,26.21
2023-11-20T08:50:35.533Z,26.48
2023-11-20T08:51:35.519Z,26.26
2023-11-20T08:52:35.526Z,25.94
2023-11-20T08:53:35.476Z,26.26
2023-11-20T08:54:35.458Z,25.94
2023-11-20T08:55:35.491Z,26.10
2023-11-20T08:56:35.431Z,26.16
2023-11-20T08:57:35.413Z,26.26
2023-11-20T08:58:35.412Z,26.37
2023-11-20T08:59:35.388Z,25.89
2023-11-20T09:00:35.402Z,26.59
2023-11-20T09:01:35.607Z,26.00
2023-11-20T09:02:35.359Z,26.26
2023-11-20T09:03:35.396Z,26.59
2023-11-20T09:04:35.402Z,26.32
2023-11-20T09:05:35.338Z,26.37
2023-11-20T09:06:35.305Z,26.05
2023-11-20T09:07:35.298Z,26.59
2023-11-20T09:08:35.276Z,26.32
2023-11-20T09:09:35.284Z,26.53
2023-11-20T09:10:35.254Z,25.78
2023-11-20T09:11:35.240Z,25.83
2023-11-20T09:12:35.225Z,25.94
2023-11-20T09:13:35.207Z,26.64
2023-11-20T09:14:35.215Z,26.00
2023-11-20T09:15:35.215Z,26.32
2023-11-20T09:16:35.211Z,26.37
2023-11-20T09:17:35.195Z,25.89
2023-11-20T09:18:35.170Z,26.21
2023-11-20T09:19:35.181Z,26.21
2023-11-20T09:20:35.142Z,26.05
2023-11-20T09:21:35.121Z,26.32
2023-11-20T09:22:35.196Z,25.94
2023-11-20T09:23:35.094Z,26.48
2023-11-20T09:24:35.083Z,26.64
2023-11-20T09:25:35.096Z,26.59
2023-11-20T09:26:35.050Z,26.43
2023-11-20T09:27:35.039Z,26.53
2023-11-20T09:28:35.071Z,26.26
2023-11-20T09:29:34.995Z,26.37
2023-11-20T09:30:34.986Z,25.94
2023-11-20T09:31:35.073Z,26.00
2023-11-20T09:32:35.013Z,26.69
2023-11-20T09:33:34.970Z,26.48
2023-11-20T09:34:34.939Z,26.43
2023-11-20T09:35:34.923Z,26.64
2023-11-20T09:36:34.913Z,26.48
2023-11-20T09:37:34.910Z,26.00
2023-11-20T09:38:34.890Z,26.10
2023-11-20T09:39:34.873Z,25.94
2023-11-20T09:40:34.864Z,26.53
2023-11-20T09:41:34.856Z,26.37
2023-11-20T09:42:34.864Z,26.43
2023-11-20T09:43:34.817Z,26.26
2023-11-20T09:44:34.829Z,26.64
2023-11-20T09:45:42.839Z,25.94
2023-11-20T09:46:34.830Z,26.48
2023-11-20T09:47:34.863Z,26.43
2023-11-20T09:48:34.783Z,26.32
2023-11-20T09:49:34.756Z,26.69
2023-11-20T09:50:34.756Z,26.53
2023-11-20T09:51:34.747Z,26.37
2023-11-20T09:52:34.729Z,26.53
2023-11-20T09:53:34.712Z,26.69
2023-11-20T09:54:36.111Z,26.10
2023-11-20T09:55:34.668Z,25.94
2023-11-20T09:56:34.671Z,26.26
2023-11-20T09:57:34.644Z,26.59
2023-11-20T09:58:34.650Z,26.32
2023-11-20T09:59:34.629Z,26.21
2023-11-20T10:00:34.608Z,26.26
2023-11-20T10:01:34.742Z,26.21
2023-11-20T10:02:34.620Z,25.94
2023-11-20T10:03:34.601Z,26.37
2023-11-20T10:04:34.579Z,26.21
2023-11-20T10:05:35.338Z,26.48
2023-11-20T10:06:34.580Z,25.94
2023-11-20T10:07:34.551Z,26.37
2023-11-20T10:08:34.508Z,26.05
2023-11-20T10:09:34.499Z,26.00
2023-11-20T10:10:34.494Z,25.73
2023-11-20T10:11:34.490Z,26.26
2023-11-20T10:12:36.772Z,26.53
2023-11-20T10:13:34.435Z,26.64
2023-11-20T10:14:34.433Z,26.69
2023-11-20T10:15:34.449Z,26.43
2023-11-20T10:16:34.458Z,26.21
2023-11-20T10:17:34.399Z,26.26
2023-11-20T10:18:34.368Z,26.00
2023-11-20T10:19:34.353Z,26.10
2023-11-20T10:20:34.368Z,26.37
2023-11-20T10:21:34.348Z,26.10
2023-11-20T10:22:34.330Z,26.26
2023-11-20T10:23:35.577Z,26.37
2023-11-20T10:24:34.338Z,26.26
2023-11-20T10:25:34.316Z,25.89
2023-11-20T10:26:34.273Z,26.53
2023-11-20T10:27:34.250Z,26.69
2023-11-20T10:28:34.253Z,26.48
2023-11-20T10:29:34.251Z,26.59
2023-11-20T10:30:34.220Z,26.32
2023-11-20T10:31:34.341Z,26.32
2023-11-20T10:32:34.334Z,26.48
2023-11-20T10:33:34.232Z,26.59
2023-11-20T10:34:34.161Z,26.48
2023-11-20T10:35:34.155Z,26.48
2023-11-20T10:36:34.182Z,25.78
2023-11-20T10:37:34.140Z,26.48
2023-11-20T10:38:34.166Z,26.59
2023-11-20T10:39:34.250Z,26.10
2023-11-20T10:40:34.133Z,26.32
2023-11-20T10:41:34.091Z,26.21
2023-11-20T10:42:34.094Z,26.32
2023-11-20T10:43:34.125Z,26.43
2023-11-20T10:44:34.056Z,26.21
2023-11-20T10:45:34.049Z,26.43
2023-11-20T10:46:34.058Z,26.48
2023-11-20T10:47:34.088Z,26.64
2023-11-20T10:48:34.083Z,26.53
2023-11-20T10:49:34.017Z,26.59
2023-11-20T10:50:33.959Z,26.16
2023-11-20T10:51:33.963Z,26.10
2023-11-20T10:52:33.957Z,26.21
2023-11-20T10:53:33.999Z,26.48
2023-11-20T10:54:33.916Z,26.43
2023-11-20T10:55:34.009Z,26.48
2023-11-20T10:56:36.836Z,26.26
2023-11-20T10:57:33.905Z,26.21
2023-11-20T10:58:33.850Z,26.64
2023-11-20T10:59:33.851Z,26.43
2023-11-20T11:00:33.966Z,26.16
2023-11-20T11:01:34.044Z,26.37
2023-11-20T11:02:33.947Z,26.75
2023-11-20T11:03:34.121Z,26.37
2023-11-20T11:04:33.791Z,26.48
2023-11-20T11:05:33.748Z,26.53
2023-11-20T11:06:33.803Z,26.16
2023-11-20T11:07:33.742Z,26.59
2023-11-20T11:08:33.726Z,26.32
2023-11-20T11:09:33.706Z,26.64
2023-11-20T11:10:33.718Z,26.53
2023-11-20T11:11:33.701Z,26.69
2023-11-20T11:12:33.670Z,26.53
2023-11-20T11:13:33.667Z,26.59
2023-11-20T11:14:33.649Z,25.89
2023-11-20T11:15:33.656Z,26.26
2023-11-20T11:16:33.656Z,25.89
2023-11-20T11:17:33.688Z,26.00
2023-11-20T11:18:33.739Z,26.48
2023-11-20T11:19:33.717Z,26.64
2023-11-20T11:20:33.582Z,26.16
2023-11-20T11:21:33.545Z,26.26
2023-11-20T11:22:33.573Z,26.32
2023-11-20T11:23:33.541Z,26.48
2023-11-20T11:24:33.519Z,26.64
2023-11-20T11:25:33.537Z,26.37
2023-11-20T11:26:33.766Z,26.64
2023-11-20T11:27:33.493Z,26.69
2023-11-20T11:28:33.478Z,26.75
2023-11-20T11:29:33.461Z,26.75
2023-11-20T11:30:33.431Z,26.26
2023-11-20T11:31:33.511Z,26.43
2023-11-20T11:32:33.452Z,26.53
2023-11-20T11:33:33.420Z,26.32
2023-11-20T11:34:33.393Z,26.43
2023-11-20T11:35:33.408Z,26.21
2023-11-20T11:36:33.368Z,26.37
2023-11-20T11:37:33.385Z,26.69
2023-11-20T11:38:33.374Z,25.94
2023-11-20T11:39:33.318Z,26.10
2023-11-20T11:40:33.341Z,26.37
2023-11-20T11:41:33.304Z,27.29
2023-11-20T11:42:33.279Z,26.21
2023-11-20T11:43:33.365Z,26.48
2023-11-20T11:44:33.270Z,26.53
2023-11-20T11:45:33.265Z,26.75
2023-11-20T11:46:33.307Z,26.69
2023-11-20T11:47:33.271Z,26.32
2023-11-20T11:48:33.218Z,26.32
2023-11-20T11:49:33.217Z,26.59
2023-11-20T11:50:33.198Z,26.37
2023-11-20T11:51:33.151Z,26.10
2023-11-20T11:52:33.164Z,26.43
2023-11-20T11:53:33.131Z,26.00
2023-11-20T11:54:33.146Z,26.37
2023-11-20T11:55:33.159Z,26.48
2023-11-20T11:56:33.120Z,26.05
2023-11-20T11:57:33.087Z,26.16
2023-11-20T11:58:33.131Z,26.32
2023-11-20T11:59:33.122Z,26.32
2023-11-20T12:00:33.062Z,26.48
2023-11-20T12:01:33.028Z,26.32
2023-11-20T12:02:33.082Z,26.43
2023-11-20T12:03:33.070Z,26.75
2023-11-20T12:04:33.154Z,26.53
2023-11-20T12:05:33.499Z,26.48
2023-11-20T12:06:32.989Z,26.32
2023-11-20T12:07:33.644Z,26.59
2023-11-20T12:08:33.145Z,26.26
2023-11-20T12:09:32.965Z,26.64
2023-11-20T12:10:32.980Z,26.37
2023-11-20T12:11:32.925Z,26.64
2023-11-20T12:12:32.906Z,26.48
2023-11-20T12:13:32.977Z,26.37
2023-11-20T12:14:32.887Z,25.94
2023-11-20T12:15:32.875Z,26.21
2023-11-20T12:16:32.985Z,26.32
2023-11-20T12:17:32.949Z,26.10
2023-11-20T12:18:32.862Z,26.64
2023-11-20T12:19:32.850Z,26.05
2023-11-20T12:20:32.798Z,26.53
2023-11-20T12:21:32.784Z,25.94
2023-11-20T12:22:32.810Z,26.10
2023-11-20T12:23:32.776Z,26.53
2023-11-20T12:24:32.734Z,26.43
2023-11-20T12:25:32.797Z,26.37
2023-11-20T12:26:32.705Z,26.43
2023-11-20T12:27:32.712Z,26.64
2023-11-20T12:28:32.747Z,26.21
2023-11-20T12:29:32.691Z,26.21
2023-11-20T12:30:32.672Z,26.26
2023-11-20T12:31:32.705Z,26.75
2023-11-20T12:32:32.714Z,26.64
2023-11-20T12:33:32.644Z,26.26
2023-11-20T12:34:32.666Z,26.53
2023-11-20T12:35:32.592Z,26.37
2023-11-20T12:36:32.590Z,26.05
2023-11-20T12:37:32.584Z,26.26
2023-11-20T12:38:32.582Z,26.80
2023-11-20T12:39:32.571Z,26.37
2023-11-20T12:40:32.605Z,26.53
2023-11-20T12:41:32.549Z,26.64
2023-11-20T12:42:32.526Z,26.59
2023-11-20T12:43:38.606Z,26.53
2023-11-20T12:44:32.489Z,26.59
2023-11-20T12:45:32.478Z,26.48
2023-11-20T12:46:32.519Z,26.59
2023-11-20T12:47:32.486Z,26.43
2023-11-20T12:48:32.474Z,26.37
2023-11-20T12:49:32.496Z,26.48
2023-11-20T12:50:32.578Z,26.37
2023-11-20T12:51:32.441Z,26.48
2023-11-20T12:52:32.522Z,26.48
2023-11-20T12:53:32.368Z,26.37
2023-11-20T12:54:32.389Z,26.26